<?xml version="1.0" encoding="UTF-8" standalone="no" ?>
<gpx xmlns="http://www.topografix.com/GPX/1/1" creator="CompeGPS" version="1.1" xmlns:xsi="http://www.w3.org/2001/XMLSchema-instance" xsi:schemaLocation="http://www.topografix.com/GPX/1/1 http://www.topografix.com/GPX/1/1/gpx.xsd http://www.garmin.com/xmlschemas/GpxExtensions/v3 http://www.garmin.com/xmlschemas/GpxExtensionsv3.xsd http://www.garmin.com/xmlschemas/TrackPointExtension/v1 http://www.garmin.com/xmlschemas/TrackPointExtensionv1.xsd" xmlns:gpxtpx="http://www.garmin.com/xmlschemas/TrackPointExtension/v1">
  <metadata>
    <link href="http://www.compegps.com">
      <text>CompeGPS TEAM, SL</text>
    </link>
    <time>2014-01-31T19:33:37Z</time>
    <bounds maxlat="43.458838" maxlon="1.507301" minlat="43.442384" minlon="1.482244"/>
  </metadata>
<wpt lat="43.453185" lon="1.485568">
  <ele>275</ele>
  <name>Espanes</name>
</wpt>
<wpt lat="43.444893" lon="1.497600">
  <ele>260</ele>
  <name>Mirguet</name>
</wpt>
<wpt lat="43.444713" lon="1.505779">
  <ele>200</ele>
  <name>Roumieu</name>
</wpt>
<wpt lat="43.458838" lon="1.489779">
  <ele>270</ele>
  <name>Le Moussie</name>
</wpt>
<trk>
    <name>Espanes</name>
    <trkseg>
      <trkpt lat="43.453185" lon="1.485568">
        <ele>276.3</ele>
        <time>2014-01-31T15:13:15Z</time>
        <name>Espanes</name>
      </trkpt>
      <trkpt lat="43.453130" lon="1.485516">
        <ele>275.5</ele>
        <time>2014-01-31T15:13:31Z</time>
      </trkpt>
      <trkpt lat="43.453180" lon="1.485376">
        <ele>275.0</ele>
        <time>2014-01-31T15:13:46Z</time>
      </trkpt>
      <trkpt lat="43.453246" lon="1.485263">
        <ele>274.7</ele>
        <time>2014-01-31T15:14:01Z</time>
      </trkpt>
      <trkpt lat="43.453317" lon="1.485154">
        <ele>274.3</ele>
        <time>2014-01-31T15:14:17Z</time>
      </trkpt>
      <trkpt lat="43.453377" lon="1.485032">
        <ele>273.4</ele>
        <time>2014-01-31T15:14:32Z</time>
      </trkpt>
      <trkpt lat="43.453344" lon="1.484918">
        <ele>272.8</ele>
        <time>2014-01-31T15:18:46Z</time>
      </trkpt>
      <trkpt lat="43.453268" lon="1.484831">
        <ele>271.7</ele>
        <time>2014-01-31T15:18:57Z</time>
      </trkpt>
      <trkpt lat="43.453182" lon="1.484776">
        <ele>270.3</ele>
        <time>2014-01-31T15:19:09Z</time>
      </trkpt>
      <trkpt lat="43.453092" lon="1.484736">
        <ele>268.5</ele>
        <time>2014-01-31T15:19:24Z</time>
      </trkpt>
      <trkpt lat="43.453001" lon="1.484689">
        <ele>266.8</ele>
        <time>2014-01-31T15:19:35Z</time>
      </trkpt>
      <trkpt lat="43.452912" lon="1.484640">
        <ele>265.4</ele>
        <time>2014-01-31T15:19:46Z</time>
      </trkpt>
      <trkpt lat="43.452829" lon="1.484594">
        <ele>264.2</ele>
        <time>2014-01-31T15:19:57Z</time>
      </trkpt>
      <trkpt lat="43.452739" lon="1.484557">
        <ele>262.9</ele>
        <time>2014-01-31T15:20:10Z</time>
      </trkpt>
      <trkpt lat="43.452637" lon="1.484511">
        <ele>261.6</ele>
        <time>2014-01-31T15:20:22Z</time>
      </trkpt>
      <trkpt lat="43.452532" lon="1.484473">
        <ele>260.6</ele>
        <time>2014-01-31T15:20:35Z</time>
      </trkpt>
      <trkpt lat="43.452428" lon="1.484425">
        <ele>260.0</ele>
        <time>2014-01-31T15:20:48Z</time>
      </trkpt>
      <trkpt lat="43.452332" lon="1.484383">
        <ele>259.3</ele>
        <time>2014-01-31T15:20:59Z</time>
      </trkpt>
      <trkpt lat="43.452241" lon="1.484344">
        <ele>258.7</ele>
        <time>2014-01-31T15:21:09Z</time>
      </trkpt>
      <trkpt lat="43.452141" lon="1.484314">
        <ele>258.5</ele>
        <time>2014-01-31T15:21:20Z</time>
      </trkpt>
      <trkpt lat="43.452056" lon="1.484264">
        <ele>258.2</ele>
        <time>2014-01-31T15:21:30Z</time>
      </trkpt>
      <trkpt lat="43.451972" lon="1.484229">
        <ele>257.9</ele>
        <time>2014-01-31T15:21:39Z</time>
      </trkpt>
      <trkpt lat="43.451881" lon="1.484187">
        <ele>257.6</ele>
        <time>2014-01-31T15:21:48Z</time>
      </trkpt>
      <trkpt lat="43.451788" lon="1.484150">
        <ele>257.2</ele>
        <time>2014-01-31T15:21:57Z</time>
      </trkpt>
      <trkpt lat="43.451696" lon="1.484109">
        <ele>256.8</ele>
        <time>2014-01-31T15:22:46Z</time>
      </trkpt>
      <trkpt lat="43.451612" lon="1.484035">
        <ele>256.9</ele>
        <time>2014-01-31T15:22:59Z</time>
      </trkpt>
      <trkpt lat="43.451535" lon="1.483949">
        <ele>256.4</ele>
        <time>2014-01-31T15:23:10Z</time>
      </trkpt>
      <trkpt lat="43.451457" lon="1.483883">
        <ele>255.7</ele>
        <time>2014-01-31T15:23:19Z</time>
      </trkpt>
      <trkpt lat="43.451392" lon="1.483801">
        <ele>255.2</ele>
        <time>2014-01-31T15:23:28Z</time>
      </trkpt>
      <trkpt lat="43.451321" lon="1.483725">
        <ele>254.8</ele>
        <time>2014-01-31T15:23:37Z</time>
      </trkpt>
      <trkpt lat="43.451258" lon="1.483642">
        <ele>254.2</ele>
        <time>2014-01-31T15:23:49Z</time>
      </trkpt>
      <trkpt lat="43.451192" lon="1.483565">
        <ele>254.0</ele>
        <time>2014-01-31T15:23:58Z</time>
      </trkpt>
      <trkpt lat="43.451113" lon="1.483513">
        <ele>253.6</ele>
        <time>2014-01-31T15:24:08Z</time>
      </trkpt>
      <trkpt lat="43.451047" lon="1.483419">
        <ele>252.8</ele>
        <time>2014-01-31T15:24:18Z</time>
      </trkpt>
      <trkpt lat="43.450964" lon="1.483345">
        <ele>252.4</ele>
        <time>2014-01-31T15:24:27Z</time>
      </trkpt>
      <trkpt lat="43.450887" lon="1.483260">
        <ele>251.7</ele>
        <time>2014-01-31T15:24:36Z</time>
      </trkpt>
      <trkpt lat="43.450806" lon="1.483175">
        <ele>251.3</ele>
        <time>2014-01-31T15:24:47Z</time>
      </trkpt>
      <trkpt lat="43.450713" lon="1.483098">
        <ele>250.9</ele>
        <time>2014-01-31T15:24:57Z</time>
      </trkpt>
      <trkpt lat="43.450635" lon="1.483010">
        <ele>250.4</ele>
        <time>2014-01-31T15:25:08Z</time>
      </trkpt>
      <trkpt lat="43.450536" lon="1.482948">
        <ele>249.8</ele>
        <time>2014-01-31T15:25:20Z</time>
      </trkpt>
      <trkpt lat="43.450426" lon="1.482857">
        <ele>249.4</ele>
        <time>2014-01-31T15:25:31Z</time>
      </trkpt>
      <trkpt lat="43.450337" lon="1.482775">
        <ele>248.9</ele>
        <time>2014-01-31T15:25:42Z</time>
      </trkpt>
      <trkpt lat="43.450254" lon="1.482679">
        <ele>248.2</ele>
        <time>2014-01-31T15:25:53Z</time>
      </trkpt>
      <trkpt lat="43.450181" lon="1.482589">
        <ele>247.8</ele>
        <time>2014-01-31T15:26:03Z</time>
      </trkpt>
      <trkpt lat="43.450107" lon="1.482494">
        <ele>247.0</ele>
        <time>2014-01-31T15:26:13Z</time>
      </trkpt>
      <trkpt lat="43.450037" lon="1.482411">
        <ele>246.1</ele>
        <time>2014-01-31T15:26:23Z</time>
      </trkpt>
      <trkpt lat="43.449950" lon="1.482350">
        <ele>244.9</ele>
        <time>2014-01-31T15:26:34Z</time>
      </trkpt>
      <trkpt lat="43.449874" lon="1.482272">
        <ele>243.6</ele>
        <time>2014-01-31T15:26:46Z</time>
      </trkpt>
      <trkpt lat="43.449807" lon="1.482244">
        <ele>242.0</ele>
        <time>2014-01-31T15:26:58Z</time>
      </trkpt>
      <trkpt lat="43.449792" lon="1.482370">
        <ele>239.9</ele>
        <time>2014-01-31T15:27:24Z</time>
      </trkpt>
      <trkpt lat="43.449785" lon="1.482500">
        <ele>239.5</ele>
        <time>2014-01-31T15:27:39Z</time>
      </trkpt>
      <trkpt lat="43.449761" lon="1.482641">
        <ele>238.8</ele>
        <time>2014-01-31T15:27:59Z</time>
      </trkpt>
      <trkpt lat="43.449725" lon="1.482782">
        <ele>238.6</ele>
        <time>2014-01-31T15:28:13Z</time>
      </trkpt>
      <trkpt lat="43.449704" lon="1.482951">
        <ele>238.0</ele>
        <time>2014-01-31T15:28:34Z</time>
      </trkpt>
      <trkpt lat="43.449691" lon="1.483110">
        <ele>237.9</ele>
        <time>2014-01-31T15:28:51Z</time>
      </trkpt>
      <trkpt lat="43.449655" lon="1.483285">
        <ele>237.5</ele>
        <time>2014-01-31T15:29:08Z</time>
      </trkpt>
      <trkpt lat="43.449625" lon="1.483491">
        <ele>237.4</ele>
        <time>2014-01-31T15:29:23Z</time>
      </trkpt>
      <trkpt lat="43.449582" lon="1.483664">
        <ele>237.6</ele>
        <time>2014-01-31T15:29:36Z</time>
      </trkpt>
      <trkpt lat="43.449552" lon="1.483905">
        <ele>237.6</ele>
        <time>2014-01-31T15:29:47Z</time>
      </trkpt>
      <trkpt lat="43.449531" lon="1.484068">
        <ele>237.7</ele>
        <time>2014-01-31T15:30:00Z</time>
      </trkpt>
      <trkpt lat="43.449508" lon="1.484223">
        <ele>237.6</ele>
        <time>2014-01-31T15:30:15Z</time>
      </trkpt>
      <trkpt lat="43.449491" lon="1.484416">
        <ele>237.6</ele>
        <time>2014-01-31T15:30:31Z</time>
      </trkpt>
      <trkpt lat="43.449467" lon="1.484620">
        <ele>237.6</ele>
        <time>2014-01-31T15:30:50Z</time>
      </trkpt>
      <trkpt lat="43.449457" lon="1.484823">
        <ele>237.7</ele>
        <time>2014-01-31T15:31:05Z</time>
      </trkpt>
      <trkpt lat="43.449408" lon="1.484986">
        <ele>236.8</ele>
        <time>2014-01-31T15:31:19Z</time>
      </trkpt>
      <trkpt lat="43.449312" lon="1.485021">
        <ele>235.0</ele>
        <time>2014-01-31T15:31:39Z</time>
      </trkpt>
      <trkpt lat="43.449200" lon="1.484970">
        <ele>234.0</ele>
        <time>2014-01-31T15:32:10Z</time>
      </trkpt>
      <trkpt lat="43.449164" lon="1.484867">
        <ele>233.6</ele>
        <time>2014-01-31T15:32:57Z</time>
      </trkpt>
      <trkpt lat="43.449031" lon="1.484850">
        <ele>230.0</ele>
        <time>2014-01-31T15:33:17Z</time>
      </trkpt>
      <trkpt lat="43.448908" lon="1.484882">
        <ele>226.9</ele>
        <time>2014-01-31T15:33:35Z</time>
      </trkpt>
      <trkpt lat="43.448820" lon="1.484948">
        <ele>226.2</ele>
        <time>2014-01-31T15:33:53Z</time>
      </trkpt>
      <trkpt lat="43.448720" lon="1.484891">
        <ele>225.9</ele>
        <time>2014-01-31T15:34:17Z</time>
      </trkpt>
      <trkpt lat="43.448698" lon="1.484758">
        <ele>226.2</ele>
        <time>2014-01-31T15:34:40Z</time>
      </trkpt>
      <trkpt lat="43.448704" lon="1.484726">
        <ele>226.6</ele>
        <time>2014-01-31T15:35:23Z</time>
      </trkpt>
      <trkpt lat="43.448663" lon="1.484560">
        <ele>226.3</ele>
        <time>2014-01-31T15:35:40Z</time>
      </trkpt>
      <trkpt lat="43.448640" lon="1.484376">
        <ele>227.0</ele>
        <time>2014-01-31T15:35:56Z</time>
      </trkpt>
      <trkpt lat="43.448651" lon="1.484176">
        <ele>227.8</ele>
        <time>2014-01-31T15:36:13Z</time>
      </trkpt>
      <trkpt lat="43.448629" lon="1.484019">
        <ele>228.6</ele>
        <time>2014-01-31T15:36:28Z</time>
      </trkpt>
      <trkpt lat="43.448548" lon="1.483811">
        <ele>229.6</ele>
        <time>2014-01-31T15:36:46Z</time>
      </trkpt>
      <trkpt lat="43.448466" lon="1.483689">
        <ele>230.8</ele>
        <time>2014-01-31T15:37:05Z</time>
      </trkpt>
      <trkpt lat="43.448335" lon="1.483603">
        <ele>232.6</ele>
        <time>2014-01-31T15:37:23Z</time>
      </trkpt>
      <trkpt lat="43.448211" lon="1.483619">
        <ele>234.3</ele>
        <time>2014-01-31T15:37:41Z</time>
      </trkpt>
      <trkpt lat="43.448053" lon="1.483660">
        <ele>235.9</ele>
        <time>2014-01-31T15:37:58Z</time>
      </trkpt>
      <trkpt lat="43.447915" lon="1.483669">
        <ele>237.2</ele>
        <time>2014-01-31T15:38:14Z</time>
      </trkpt>
      <trkpt lat="43.447790" lon="1.483714">
        <ele>238.4</ele>
        <time>2014-01-31T15:38:31Z</time>
      </trkpt>
      <trkpt lat="43.447676" lon="1.483772">
        <ele>239.5</ele>
        <time>2014-01-31T15:38:45Z</time>
      </trkpt>
      <trkpt lat="43.447578" lon="1.483883">
        <ele>241.7</ele>
        <time>2014-01-31T15:40:32Z</time>
      </trkpt>
      <trkpt lat="43.447522" lon="1.483982">
        <ele>242.0</ele>
        <time>2014-01-31T15:40:45Z</time>
      </trkpt>
      <trkpt lat="43.447478" lon="1.484025">
        <ele>241.9</ele>
        <time>2014-01-31T15:43:19Z</time>
      </trkpt>
      <trkpt lat="43.447450" lon="1.484159">
        <ele>241.7</ele>
        <time>2014-01-31T15:43:29Z</time>
      </trkpt>
      <trkpt lat="43.447427" lon="1.484269">
        <ele>242.1</ele>
        <time>2014-01-31T15:44:20Z</time>
      </trkpt>
      <trkpt lat="43.447400" lon="1.484409">
        <ele>242.6</ele>
        <time>2014-01-31T15:44:31Z</time>
      </trkpt>
      <trkpt lat="43.447378" lon="1.484546">
        <ele>242.9</ele>
        <time>2014-01-31T15:44:41Z</time>
      </trkpt>
      <trkpt lat="43.447344" lon="1.484673">
        <ele>243.1</ele>
        <time>2014-01-31T15:44:50Z</time>
      </trkpt>
      <trkpt lat="43.447319" lon="1.484801">
        <ele>243.7</ele>
        <time>2014-01-31T15:45:00Z</time>
      </trkpt>
      <trkpt lat="43.447300" lon="1.484895">
        <ele>244.1</ele>
        <time>2014-01-31T15:46:13Z</time>
      </trkpt>
      <trkpt lat="43.447282" lon="1.485024">
        <ele>244.7</ele>
        <time>2014-01-31T15:46:24Z</time>
      </trkpt>
      <trkpt lat="43.447264" lon="1.485162">
        <ele>245.2</ele>
        <time>2014-01-31T15:46:35Z</time>
      </trkpt>
      <trkpt lat="43.447222" lon="1.485289">
        <ele>245.6</ele>
        <time>2014-01-31T15:46:45Z</time>
      </trkpt>
      <trkpt lat="43.447197" lon="1.485423">
        <ele>246.0</ele>
        <time>2014-01-31T15:46:55Z</time>
      </trkpt>
      <trkpt lat="43.447192" lon="1.485558">
        <ele>246.6</ele>
        <time>2014-01-31T15:47:06Z</time>
      </trkpt>
      <trkpt lat="43.447166" lon="1.485683">
        <ele>246.9</ele>
        <time>2014-01-31T15:47:15Z</time>
      </trkpt>
      <trkpt lat="43.447136" lon="1.485818">
        <ele>247.1</ele>
        <time>2014-01-31T15:47:24Z</time>
      </trkpt>
      <trkpt lat="43.447110" lon="1.485952">
        <ele>247.4</ele>
        <time>2014-01-31T15:47:33Z</time>
      </trkpt>
      <trkpt lat="43.447076" lon="1.486085">
        <ele>247.6</ele>
        <time>2014-01-31T15:47:43Z</time>
      </trkpt>
      <trkpt lat="43.447045" lon="1.486206">
        <ele>248.3</ele>
        <time>2014-01-31T15:47:53Z</time>
      </trkpt>
      <trkpt lat="43.447020" lon="1.486334">
        <ele>248.4</ele>
        <time>2014-01-31T15:48:03Z</time>
      </trkpt>
      <trkpt lat="43.446992" lon="1.486462">
        <ele>249.3</ele>
        <time>2014-01-31T15:48:12Z</time>
      </trkpt>
      <trkpt lat="43.446988" lon="1.486596">
        <ele>249.8</ele>
        <time>2014-01-31T15:48:21Z</time>
      </trkpt>
      <trkpt lat="43.446954" lon="1.486717">
        <ele>250.2</ele>
        <time>2014-01-31T15:48:30Z</time>
      </trkpt>
      <trkpt lat="43.446921" lon="1.486831">
        <ele>250.7</ele>
        <time>2014-01-31T15:48:39Z</time>
      </trkpt>
      <trkpt lat="43.446891" lon="1.486955">
        <ele>250.4</ele>
        <time>2014-01-31T15:48:48Z</time>
      </trkpt>
      <trkpt lat="43.446841" lon="1.487074">
        <ele>250.4</ele>
        <time>2014-01-31T15:48:57Z</time>
      </trkpt>
      <trkpt lat="43.446775" lon="1.487176">
        <ele>250.4</ele>
        <time>2014-01-31T15:49:06Z</time>
      </trkpt>
      <trkpt lat="43.446720" lon="1.487284">
        <ele>250.4</ele>
        <time>2014-01-31T15:49:15Z</time>
      </trkpt>
      <trkpt lat="43.446666" lon="1.487404">
        <ele>250.6</ele>
        <time>2014-01-31T15:49:25Z</time>
      </trkpt>
      <trkpt lat="43.446633" lon="1.487528">
        <ele>250.9</ele>
        <time>2014-01-31T15:49:36Z</time>
      </trkpt>
      <trkpt lat="43.446584" lon="1.487655">
        <ele>251.1</ele>
        <time>2014-01-31T15:49:48Z</time>
      </trkpt>
      <trkpt lat="43.446552" lon="1.487802">
        <ele>251.3</ele>
        <time>2014-01-31T15:49:59Z</time>
      </trkpt>
      <trkpt lat="43.446520" lon="1.487955">
        <ele>251.5</ele>
        <time>2014-01-31T15:50:10Z</time>
      </trkpt>
      <trkpt lat="43.446492" lon="1.488129">
        <ele>252.0</ele>
        <time>2014-01-31T15:50:23Z</time>
      </trkpt>
      <trkpt lat="43.446464" lon="1.488271">
        <ele>252.4</ele>
        <time>2014-01-31T15:50:34Z</time>
      </trkpt>
      <trkpt lat="43.446435" lon="1.488416">
        <ele>252.6</ele>
        <time>2014-01-31T15:50:44Z</time>
      </trkpt>
      <trkpt lat="43.446412" lon="1.488556">
        <ele>252.8</ele>
        <time>2014-01-31T15:50:54Z</time>
      </trkpt>
      <trkpt lat="43.446385" lon="1.488697">
        <ele>253.5</ele>
        <time>2014-01-31T15:51:06Z</time>
      </trkpt>
      <trkpt lat="43.446357" lon="1.488831">
        <ele>253.6</ele>
        <time>2014-01-31T15:51:16Z</time>
      </trkpt>
      <trkpt lat="43.446341" lon="1.488957">
        <ele>254.2</ele>
        <time>2014-01-31T15:51:26Z</time>
      </trkpt>
      <trkpt lat="43.446352" lon="1.489085">
        <ele>254.2</ele>
        <time>2014-01-31T15:51:36Z</time>
      </trkpt>
      <trkpt lat="43.446331" lon="1.489231">
        <ele>253.3</ele>
        <time>2014-01-31T15:51:45Z</time>
      </trkpt>
      <trkpt lat="43.446384" lon="1.489319">
        <ele>253.1</ele>
        <time>2014-01-31T15:51:54Z</time>
      </trkpt>
      <trkpt lat="43.446449" lon="1.489426">
        <ele>253.7</ele>
        <time>2014-01-31T15:52:04Z</time>
      </trkpt>
      <trkpt lat="43.446512" lon="1.489526">
        <ele>254.3</ele>
        <time>2014-01-31T15:52:13Z</time>
      </trkpt>
      <trkpt lat="43.446577" lon="1.489633">
        <ele>255.0</ele>
        <time>2014-01-31T15:52:22Z</time>
      </trkpt>
      <trkpt lat="43.446637" lon="1.489735">
        <ele>255.6</ele>
        <time>2014-01-31T15:52:31Z</time>
      </trkpt>
      <trkpt lat="43.446705" lon="1.489845">
        <ele>255.8</ele>
        <time>2014-01-31T15:52:40Z</time>
      </trkpt>
      <trkpt lat="43.446773" lon="1.489954">
        <ele>255.4</ele>
        <time>2014-01-31T15:52:49Z</time>
      </trkpt>
      <trkpt lat="43.446846" lon="1.490043">
        <ele>254.8</ele>
        <time>2014-01-31T15:52:57Z</time>
      </trkpt>
      <trkpt lat="43.446903" lon="1.490146">
        <ele>254.2</ele>
        <time>2014-01-31T15:53:05Z</time>
      </trkpt>
      <trkpt lat="43.446955" lon="1.490254">
        <ele>253.6</ele>
        <time>2014-01-31T15:53:14Z</time>
      </trkpt>
      <trkpt lat="43.446969" lon="1.490371">
        <ele>253.2</ele>
        <time>2014-01-31T15:53:22Z</time>
      </trkpt>
      <trkpt lat="43.446939" lon="1.490509">
        <ele>253.6</ele>
        <time>2014-01-31T15:53:31Z</time>
      </trkpt>
      <trkpt lat="43.446914" lon="1.490630">
        <ele>254.0</ele>
        <time>2014-01-31T15:53:39Z</time>
      </trkpt>
      <trkpt lat="43.446890" lon="1.490765">
        <ele>254.5</ele>
        <time>2014-01-31T15:53:49Z</time>
      </trkpt>
      <trkpt lat="43.446850" lon="1.490896">
        <ele>254.9</ele>
        <time>2014-01-31T15:53:59Z</time>
      </trkpt>
      <trkpt lat="43.446821" lon="1.491020">
        <ele>255.5</ele>
        <time>2014-01-31T15:54:09Z</time>
      </trkpt>
      <trkpt lat="43.446782" lon="1.491142">
        <ele>255.6</ele>
        <time>2014-01-31T15:54:19Z</time>
      </trkpt>
      <trkpt lat="43.446754" lon="1.491288">
        <ele>255.5</ele>
        <time>2014-01-31T15:54:29Z</time>
      </trkpt>
      <trkpt lat="43.446714" lon="1.491415">
        <ele>255.8</ele>
        <time>2014-01-31T15:54:39Z</time>
      </trkpt>
      <trkpt lat="43.446685" lon="1.491543">
        <ele>255.9</ele>
        <time>2014-01-31T15:54:49Z</time>
      </trkpt>
      <trkpt lat="43.446673" lon="1.491669">
        <ele>255.9</ele>
        <time>2014-01-31T15:54:59Z</time>
      </trkpt>
      <trkpt lat="43.446651" lon="1.491803">
        <ele>255.8</ele>
        <time>2014-01-31T15:55:09Z</time>
      </trkpt>
      <trkpt lat="43.446626" lon="1.491932">
        <ele>255.9</ele>
        <time>2014-01-31T15:55:18Z</time>
      </trkpt>
      <trkpt lat="43.446602" lon="1.492077">
        <ele>255.9</ele>
        <time>2014-01-31T15:55:27Z</time>
      </trkpt>
      <trkpt lat="43.446583" lon="1.492221">
        <ele>255.9</ele>
        <time>2014-01-31T15:55:36Z</time>
      </trkpt>
      <trkpt lat="43.446570" lon="1.492361">
        <ele>255.8</ele>
        <time>2014-01-31T15:55:46Z</time>
      </trkpt>
      <trkpt lat="43.446543" lon="1.492501">
        <ele>255.4</ele>
        <time>2014-01-31T15:55:55Z</time>
      </trkpt>
      <trkpt lat="43.446520" lon="1.492665">
        <ele>255.5</ele>
        <time>2014-01-31T15:56:04Z</time>
      </trkpt>
      <trkpt lat="43.446489" lon="1.492787">
        <ele>255.5</ele>
        <time>2014-01-31T15:56:13Z</time>
      </trkpt>
      <trkpt lat="43.446458" lon="1.492899">
        <ele>255.3</ele>
        <time>2014-01-31T15:56:22Z</time>
      </trkpt>
      <trkpt lat="43.446427" lon="1.493016">
        <ele>255.0</ele>
        <time>2014-01-31T15:56:30Z</time>
      </trkpt>
      <trkpt lat="43.446399" lon="1.493136">
        <ele>254.7</ele>
        <time>2014-01-31T15:56:40Z</time>
      </trkpt>
      <trkpt lat="43.446376" lon="1.493109">
        <ele>254.2</ele>
        <time>2014-01-31T15:57:16Z</time>
      </trkpt>
      <trkpt lat="43.446331" lon="1.493169">
        <ele>253.9</ele>
        <time>2014-01-31T15:59:00Z</time>
      </trkpt>
      <trkpt lat="43.446371" lon="1.493179">
        <ele>253.9</ele>
        <time>2014-01-31T16:00:09Z</time>
      </trkpt>
      <trkpt lat="43.446381" lon="1.493307">
        <ele>254.2</ele>
        <time>2014-01-31T16:00:17Z</time>
      </trkpt>
      <trkpt lat="43.446344" lon="1.493401">
        <ele>254.2</ele>
        <time>2014-01-31T16:02:13Z</time>
      </trkpt>
      <trkpt lat="43.446324" lon="1.493532">
        <ele>254.0</ele>
        <time>2014-01-31T16:02:22Z</time>
      </trkpt>
      <trkpt lat="43.446314" lon="1.493667">
        <ele>253.8</ele>
        <time>2014-01-31T16:02:31Z</time>
      </trkpt>
      <trkpt lat="43.446292" lon="1.493795">
        <ele>253.7</ele>
        <time>2014-01-31T16:02:40Z</time>
      </trkpt>
      <trkpt lat="43.446271" lon="1.493941">
        <ele>253.6</ele>
        <time>2014-01-31T16:02:49Z</time>
      </trkpt>
      <trkpt lat="43.446244" lon="1.494077">
        <ele>253.4</ele>
        <time>2014-01-31T16:02:58Z</time>
      </trkpt>
      <trkpt lat="43.446205" lon="1.494209">
        <ele>253.1</ele>
        <time>2014-01-31T16:03:06Z</time>
      </trkpt>
      <trkpt lat="43.446182" lon="1.494346">
        <ele>253.0</ele>
        <time>2014-01-31T16:03:14Z</time>
      </trkpt>
      <trkpt lat="43.446137" lon="1.494467">
        <ele>252.6</ele>
        <time>2014-01-31T16:03:21Z</time>
      </trkpt>
      <trkpt lat="43.446095" lon="1.494587">
        <ele>252.4</ele>
        <time>2014-01-31T16:03:28Z</time>
      </trkpt>
      <trkpt lat="43.446040" lon="1.494721">
        <ele>252.4</ele>
        <time>2014-01-31T16:03:35Z</time>
      </trkpt>
      <trkpt lat="43.445993" lon="1.494840">
        <ele>252.6</ele>
        <time>2014-01-31T16:03:41Z</time>
      </trkpt>
      <trkpt lat="43.445941" lon="1.494994">
        <ele>253.2</ele>
        <time>2014-01-31T16:03:49Z</time>
      </trkpt>
      <trkpt lat="43.445887" lon="1.495108">
        <ele>253.7</ele>
        <time>2014-01-31T16:03:56Z</time>
      </trkpt>
      <trkpt lat="43.445841" lon="1.495218">
        <ele>254.0</ele>
        <time>2014-01-31T16:04:03Z</time>
      </trkpt>
      <trkpt lat="43.445796" lon="1.495343">
        <ele>254.3</ele>
        <time>2014-01-31T16:04:10Z</time>
      </trkpt>
      <trkpt lat="43.445744" lon="1.495479">
        <ele>254.5</ele>
        <time>2014-01-31T16:04:17Z</time>
      </trkpt>
      <trkpt lat="43.445695" lon="1.495603">
        <ele>254.8</ele>
        <time>2014-01-31T16:04:24Z</time>
      </trkpt>
      <trkpt lat="43.445646" lon="1.495719">
        <ele>255.3</ele>
        <time>2014-01-31T16:04:31Z</time>
      </trkpt>
      <trkpt lat="43.445603" lon="1.495839">
        <ele>255.6</ele>
        <time>2014-01-31T16:04:38Z</time>
      </trkpt>
      <trkpt lat="43.445555" lon="1.495970">
        <ele>255.8</ele>
        <time>2014-01-31T16:04:45Z</time>
      </trkpt>
      <trkpt lat="43.445514" lon="1.496107">
        <ele>256.2</ele>
        <time>2014-01-31T16:04:52Z</time>
      </trkpt>
      <trkpt lat="43.445469" lon="1.496229">
        <ele>256.5</ele>
        <time>2014-01-31T16:04:59Z</time>
      </trkpt>
      <trkpt lat="43.445415" lon="1.496341">
        <ele>256.8</ele>
        <time>2014-01-31T16:05:06Z</time>
      </trkpt>
      <trkpt lat="43.445364" lon="1.496463">
        <ele>257.2</ele>
        <time>2014-01-31T16:05:14Z</time>
      </trkpt>
      <trkpt lat="43.445307" lon="1.496578">
        <ele>257.3</ele>
        <time>2014-01-31T16:05:21Z</time>
      </trkpt>
      <trkpt lat="43.445255" lon="1.496692">
        <ele>257.6</ele>
        <time>2014-01-31T16:05:28Z</time>
      </trkpt>
      <trkpt lat="43.445217" lon="1.496800">
        <ele>257.9</ele>
        <time>2014-01-31T16:05:35Z</time>
      </trkpt>
      <trkpt lat="43.445184" lon="1.496890">
        <ele>258.3</ele>
        <time>2014-01-31T16:06:29Z</time>
      </trkpt>
      <trkpt lat="43.445130" lon="1.497016">
        <ele>258.6</ele>
        <time>2014-01-31T16:06:37Z</time>
      </trkpt>
      <trkpt lat="43.445083" lon="1.497130">
        <ele>258.7</ele>
        <time>2014-01-31T16:06:44Z</time>
      </trkpt>
      <trkpt lat="43.445025" lon="1.497246">
        <ele>258.7</ele>
        <time>2014-01-31T16:06:52Z</time>
      </trkpt>
      <trkpt lat="43.444976" lon="1.497367">
        <ele>258.8</ele>
        <time>2014-01-31T16:06:59Z</time>
      </trkpt>
      <trkpt lat="43.444933" lon="1.497487">
        <ele>258.6</ele>
        <time>2014-01-31T16:07:06Z</time>
      </trkpt>
      <trkpt lat="43.444893" lon="1.497600">
        <ele>258.7</ele>
        <time>2014-01-31T16:07:14Z</time>
        <name>Mirguet</name>
      </trkpt>
      <trkpt lat="43.444864" lon="1.497717">
        <ele>258.7</ele>
        <time>2014-01-31T16:07:30Z</time>
      </trkpt>
      <trkpt lat="43.444814" lon="1.497835">
        <ele>258.5</ele>
        <time>2014-01-31T16:07:41Z</time>
      </trkpt>
      <trkpt lat="43.444750" lon="1.497947">
        <ele>258.4</ele>
        <time>2014-01-31T16:07:49Z</time>
      </trkpt>
      <trkpt lat="43.444699" lon="1.498053">
        <ele>258.6</ele>
        <time>2014-01-31T16:07:56Z</time>
      </trkpt>
      <trkpt lat="43.444649" lon="1.498172">
        <ele>258.8</ele>
        <time>2014-01-31T16:08:03Z</time>
      </trkpt>
      <trkpt lat="43.444593" lon="1.498285">
        <ele>258.8</ele>
        <time>2014-01-31T16:08:11Z</time>
      </trkpt>
      <trkpt lat="43.444534" lon="1.498388">
        <ele>258.8</ele>
        <time>2014-01-31T16:08:18Z</time>
      </trkpt>
      <trkpt lat="43.444475" lon="1.498508">
        <ele>258.9</ele>
        <time>2014-01-31T16:08:26Z</time>
      </trkpt>
      <trkpt lat="43.444410" lon="1.498610">
        <ele>259.1</ele>
        <time>2014-01-31T16:08:33Z</time>
      </trkpt>
      <trkpt lat="43.444354" lon="1.498742">
        <ele>259.1</ele>
        <time>2014-01-31T16:08:40Z</time>
      </trkpt>
      <trkpt lat="43.444293" lon="1.498853">
        <ele>259.2</ele>
        <time>2014-01-31T16:08:47Z</time>
      </trkpt>
      <trkpt lat="43.444228" lon="1.498949">
        <ele>259.3</ele>
        <time>2014-01-31T16:08:54Z</time>
      </trkpt>
      <trkpt lat="43.444161" lon="1.499043">
        <ele>259.7</ele>
        <time>2014-01-31T16:09:01Z</time>
      </trkpt>
      <trkpt lat="43.444101" lon="1.499167">
        <ele>259.8</ele>
        <time>2014-01-31T16:09:09Z</time>
      </trkpt>
      <trkpt lat="43.444054" lon="1.499281">
        <ele>260.0</ele>
        <time>2014-01-31T16:09:16Z</time>
      </trkpt>
      <trkpt lat="43.444032" lon="1.499418">
        <ele>260.1</ele>
        <time>2014-01-31T16:09:58Z</time>
      </trkpt>
      <trkpt lat="43.443962" lon="1.499530">
        <ele>260.1</ele>
        <time>2014-01-31T16:10:06Z</time>
      </trkpt>
      <trkpt lat="43.443905" lon="1.499627">
        <ele>260.0</ele>
        <time>2014-01-31T16:10:12Z</time>
      </trkpt>
      <trkpt lat="43.443862" lon="1.499743">
        <ele>259.9</ele>
        <time>2014-01-31T16:10:19Z</time>
      </trkpt>
      <trkpt lat="43.443814" lon="1.499867">
        <ele>259.7</ele>
        <time>2014-01-31T16:10:27Z</time>
      </trkpt>
      <trkpt lat="43.443781" lon="1.500011">
        <ele>259.3</ele>
        <time>2014-01-31T16:10:34Z</time>
      </trkpt>
      <trkpt lat="43.443751" lon="1.500126">
        <ele>258.9</ele>
        <time>2014-01-31T16:10:41Z</time>
      </trkpt>
      <trkpt lat="43.443729" lon="1.500271">
        <ele>258.3</ele>
        <time>2014-01-31T16:10:48Z</time>
      </trkpt>
      <trkpt lat="43.443726" lon="1.500408">
        <ele>257.7</ele>
        <time>2014-01-31T16:10:55Z</time>
      </trkpt>
      <trkpt lat="43.443733" lon="1.500535">
        <ele>256.7</ele>
        <time>2014-01-31T16:11:02Z</time>
      </trkpt>
      <trkpt lat="43.443732" lon="1.500662">
        <ele>255.8</ele>
        <time>2014-01-31T16:11:09Z</time>
      </trkpt>
      <trkpt lat="43.443732" lon="1.500806">
        <ele>254.8</ele>
        <time>2014-01-31T16:11:17Z</time>
      </trkpt>
      <trkpt lat="43.443735" lon="1.500937">
        <ele>253.6</ele>
        <time>2014-01-31T16:11:24Z</time>
      </trkpt>
      <trkpt lat="43.443732" lon="1.501072">
        <ele>252.7</ele>
        <time>2014-01-31T16:11:32Z</time>
      </trkpt>
      <trkpt lat="43.443742" lon="1.501207">
        <ele>251.9</ele>
        <time>2014-01-31T16:11:39Z</time>
      </trkpt>
      <trkpt lat="43.443741" lon="1.501339">
        <ele>251.1</ele>
        <time>2014-01-31T16:11:46Z</time>
      </trkpt>
      <trkpt lat="43.443736" lon="1.501468">
        <ele>250.2</ele>
        <time>2014-01-31T16:11:53Z</time>
      </trkpt>
      <trkpt lat="43.443745" lon="1.501599">
        <ele>249.6</ele>
        <time>2014-01-31T16:12:01Z</time>
      </trkpt>
      <trkpt lat="43.443743" lon="1.501730">
        <ele>249.0</ele>
        <time>2014-01-31T16:12:08Z</time>
      </trkpt>
      <trkpt lat="43.443739" lon="1.501852">
        <ele>247.9</ele>
        <time>2014-01-31T16:12:15Z</time>
      </trkpt>
      <trkpt lat="43.443727" lon="1.501959">
        <ele>247.3</ele>
        <time>2014-01-31T16:12:21Z</time>
      </trkpt>
      <trkpt lat="43.443718" lon="1.502072">
        <ele>246.8</ele>
        <time>2014-01-31T16:12:28Z</time>
      </trkpt>
      <trkpt lat="43.443709" lon="1.502196">
        <ele>246.2</ele>
        <time>2014-01-31T16:12:35Z</time>
      </trkpt>
      <trkpt lat="43.443691" lon="1.502348">
        <ele>245.5</ele>
        <time>2014-01-31T16:12:43Z</time>
      </trkpt>
      <trkpt lat="43.443682" lon="1.502485">
        <ele>245.0</ele>
        <time>2014-01-31T16:12:50Z</time>
      </trkpt>
      <trkpt lat="43.443685" lon="1.502613">
        <ele>244.5</ele>
        <time>2014-01-31T16:12:57Z</time>
      </trkpt>
      <trkpt lat="43.443681" lon="1.502745">
        <ele>244.0</ele>
        <time>2014-01-31T16:13:05Z</time>
      </trkpt>
      <trkpt lat="43.443667" lon="1.502880">
        <ele>243.6</ele>
        <time>2014-01-31T16:13:13Z</time>
      </trkpt>
      <trkpt lat="43.443651" lon="1.503014">
        <ele>243.1</ele>
        <time>2014-01-31T16:13:21Z</time>
      </trkpt>
      <trkpt lat="43.443631" lon="1.503140">
        <ele>242.5</ele>
        <time>2014-01-31T16:13:29Z</time>
      </trkpt>
      <trkpt lat="43.443610" lon="1.503266">
        <ele>242.1</ele>
        <time>2014-01-31T16:13:37Z</time>
      </trkpt>
      <trkpt lat="43.443553" lon="1.503371">
        <ele>241.3</ele>
        <time>2014-01-31T16:13:47Z</time>
      </trkpt>
      <trkpt lat="43.443479" lon="1.503479">
        <ele>239.6</ele>
        <time>2014-01-31T16:13:57Z</time>
      </trkpt>
      <trkpt lat="43.443430" lon="1.503591">
        <ele>238.1</ele>
        <time>2014-01-31T16:14:09Z</time>
      </trkpt>
      <trkpt lat="43.443381" lon="1.503757">
        <ele>236.3</ele>
        <time>2014-01-31T16:14:21Z</time>
      </trkpt>
      <trkpt lat="43.443333" lon="1.503872">
        <ele>234.6</ele>
        <time>2014-01-31T16:14:32Z</time>
      </trkpt>
      <trkpt lat="43.443273" lon="1.503974">
        <ele>230.9</ele>
        <time>2014-01-31T16:14:56Z</time>
      </trkpt>
      <trkpt lat="43.443185" lon="1.504075">
        <ele>230.8</ele>
        <time>2014-01-31T16:15:14Z</time>
      </trkpt>
      <trkpt lat="43.443076" lon="1.504141">
        <ele>227.8</ele>
        <time>2014-01-31T16:15:28Z</time>
      </trkpt>
      <trkpt lat="43.442948" lon="1.504241">
        <ele>224.1</ele>
        <time>2014-01-31T16:15:41Z</time>
      </trkpt>
      <trkpt lat="43.442859" lon="1.504340">
        <ele>222.2</ele>
        <time>2014-01-31T16:15:53Z</time>
      </trkpt>
      <trkpt lat="43.442817" lon="1.504374">
        <ele>221.4</ele>
        <time>2014-01-31T16:16:17Z</time>
      </trkpt>
      <trkpt lat="43.442713" lon="1.504479">
        <ele>219.7</ele>
        <time>2014-01-31T16:16:27Z</time>
      </trkpt>
      <trkpt lat="43.442642" lon="1.504618">
        <ele>217.7</ele>
        <time>2014-01-31T16:16:38Z</time>
      </trkpt>
      <trkpt lat="43.442547" lon="1.504771">
        <ele>215.1</ele>
        <time>2014-01-31T16:16:51Z</time>
      </trkpt>
      <trkpt lat="43.442485" lon="1.504953">
        <ele>212.3</ele>
        <time>2014-01-31T16:17:04Z</time>
      </trkpt>
      <trkpt lat="43.442456" lon="1.505133">
        <ele>210.5</ele>
        <time>2014-01-31T16:17:15Z</time>
      </trkpt>
      <trkpt lat="43.442421" lon="1.505304">
        <ele>207.3</ele>
        <time>2014-01-31T16:17:28Z</time>
      </trkpt>
      <trkpt lat="43.442384" lon="1.505462">
        <ele>204.3</ele>
        <time>2014-01-31T16:17:40Z</time>
      </trkpt>
      <trkpt lat="43.442405" lon="1.505626">
        <ele>202.7</ele>
        <time>2014-01-31T16:17:51Z</time>
      </trkpt>
      <trkpt lat="43.442454" lon="1.505777">
        <ele>201.8</ele>
        <time>2014-01-31T16:18:00Z</time>
      </trkpt>
      <trkpt lat="43.442513" lon="1.505942">
        <ele>200.9</ele>
        <time>2014-01-31T16:18:11Z</time>
      </trkpt>
      <trkpt lat="43.442603" lon="1.506061">
        <ele>200.0</ele>
        <time>2014-01-31T16:18:20Z</time>
      </trkpt>
      <trkpt lat="43.442679" lon="1.506157">
        <ele>199.7</ele>
        <time>2014-01-31T16:18:31Z</time>
      </trkpt>
      <trkpt lat="43.442774" lon="1.506226">
        <ele>200.2</ele>
        <time>2014-01-31T16:18:44Z</time>
      </trkpt>
      <trkpt lat="43.442868" lon="1.506295">
        <ele>200.1</ele>
        <time>2014-01-31T16:19:10Z</time>
      </trkpt>
      <trkpt lat="43.442973" lon="1.506372">
        <ele>200.2</ele>
        <time>2014-01-31T16:19:20Z</time>
      </trkpt>
      <trkpt lat="43.443060" lon="1.506433">
        <ele>200.2</ele>
        <time>2014-01-31T16:19:29Z</time>
      </trkpt>
      <trkpt lat="43.443160" lon="1.506487">
        <ele>200.4</ele>
        <time>2014-01-31T16:19:38Z</time>
      </trkpt>
      <trkpt lat="43.443263" lon="1.506498">
        <ele>200.4</ele>
        <time>2014-01-31T16:19:48Z</time>
      </trkpt>
      <trkpt lat="43.443372" lon="1.506524">
        <ele>200.7</ele>
        <time>2014-01-31T16:19:58Z</time>
      </trkpt>
      <trkpt lat="43.443471" lon="1.506501">
        <ele>201.0</ele>
        <time>2014-01-31T16:20:07Z</time>
      </trkpt>
      <trkpt lat="43.443556" lon="1.506459">
        <ele>200.9</ele>
        <time>2014-01-31T16:20:16Z</time>
      </trkpt>
      <trkpt lat="43.443690" lon="1.506394">
        <ele>200.7</ele>
        <time>2014-01-31T16:20:25Z</time>
      </trkpt>
      <trkpt lat="43.443793" lon="1.506334">
        <ele>200.7</ele>
        <time>2014-01-31T16:20:33Z</time>
      </trkpt>
      <trkpt lat="43.443883" lon="1.506251">
        <ele>200.9</ele>
        <time>2014-01-31T16:20:41Z</time>
      </trkpt>
      <trkpt lat="43.443972" lon="1.506183">
        <ele>200.8</ele>
        <time>2014-01-31T16:20:48Z</time>
      </trkpt>
      <trkpt lat="43.444073" lon="1.506105">
        <ele>201.0</ele>
        <time>2014-01-31T16:20:57Z</time>
      </trkpt>
      <trkpt lat="43.444169" lon="1.506031">
        <ele>200.8</ele>
        <time>2014-01-31T16:21:06Z</time>
      </trkpt>
      <trkpt lat="43.444249" lon="1.505955">
        <ele>200.9</ele>
        <time>2014-01-31T16:21:14Z</time>
      </trkpt>
      <trkpt lat="43.444352" lon="1.505875">
        <ele>201.1</ele>
        <time>2014-01-31T16:21:22Z</time>
      </trkpt>
      <trkpt lat="43.444441" lon="1.505768">
        <ele>201.1</ele>
        <time>2014-01-31T16:21:33Z</time>
      </trkpt>
      <trkpt lat="43.444563" lon="1.505728">
        <ele>201.2</ele>
        <time>2014-01-31T16:21:45Z</time>
      </trkpt>
      <trkpt lat="43.444713" lon="1.505779">
        <ele>201.8</ele>
        <time>2014-01-31T16:26:19Z</time>
        <name>Roumieu</name>
      </trkpt>
      <trkpt lat="43.444813" lon="1.505690">
        <ele>201.5</ele>
        <time>2014-01-31T16:26:30Z</time>
      </trkpt>
      <trkpt lat="43.444907" lon="1.505754">
        <ele>201.7</ele>
        <time>2014-01-31T16:26:40Z</time>
      </trkpt>
      <trkpt lat="43.445009" lon="1.505859">
        <ele>201.9</ele>
        <time>2014-01-31T16:26:50Z</time>
      </trkpt>
      <trkpt lat="43.445095" lon="1.505962">
        <ele>201.9</ele>
        <time>2014-01-31T16:27:00Z</time>
      </trkpt>
      <trkpt lat="43.445186" lon="1.506045">
        <ele>201.9</ele>
        <time>2014-01-31T16:27:10Z</time>
      </trkpt>
      <trkpt lat="43.445268" lon="1.506128">
        <ele>201.9</ele>
        <time>2014-01-31T16:27:19Z</time>
      </trkpt>
      <trkpt lat="43.445362" lon="1.506162">
        <ele>202.1</ele>
        <time>2014-01-31T16:27:30Z</time>
      </trkpt>
      <trkpt lat="43.445456" lon="1.506169">
        <ele>202.4</ele>
        <time>2014-01-31T16:27:39Z</time>
      </trkpt>
      <trkpt lat="43.445557" lon="1.506186">
        <ele>203.0</ele>
        <time>2014-01-31T16:27:48Z</time>
      </trkpt>
      <trkpt lat="43.445648" lon="1.506193">
        <ele>203.2</ele>
        <time>2014-01-31T16:27:59Z</time>
      </trkpt>
      <trkpt lat="43.445755" lon="1.506190">
        <ele>205.8</ele>
        <time>2014-01-31T16:28:13Z</time>
      </trkpt>
      <trkpt lat="43.445861" lon="1.506175">
        <ele>207.9</ele>
        <time>2014-01-31T16:28:29Z</time>
      </trkpt>
      <trkpt lat="43.445961" lon="1.506183">
        <ele>210.1</ele>
        <time>2014-01-31T16:28:44Z</time>
      </trkpt>
      <trkpt lat="43.446063" lon="1.506192">
        <ele>213.0</ele>
        <time>2014-01-31T16:29:01Z</time>
      </trkpt>
      <trkpt lat="43.446157" lon="1.506265">
        <ele>214.8</ele>
        <time>2014-01-31T16:29:12Z</time>
      </trkpt>
      <trkpt lat="43.446200" lon="1.506397">
        <ele>216.8</ele>
        <time>2014-01-31T16:29:24Z</time>
      </trkpt>
      <trkpt lat="43.446258" lon="1.506506">
        <ele>218.8</ele>
        <time>2014-01-31T16:29:36Z</time>
      </trkpt>
      <trkpt lat="43.446307" lon="1.506610">
        <ele>220.6</ele>
        <time>2014-01-31T16:29:48Z</time>
      </trkpt>
      <trkpt lat="43.446346" lon="1.506722">
        <ele>222.5</ele>
        <time>2014-01-31T16:30:01Z</time>
      </trkpt>
      <trkpt lat="43.446396" lon="1.506839">
        <ele>224.3</ele>
        <time>2014-01-31T16:30:13Z</time>
      </trkpt>
      <trkpt lat="43.446443" lon="1.506959">
        <ele>226.2</ele>
        <time>2014-01-31T16:30:25Z</time>
      </trkpt>
      <trkpt lat="43.446483" lon="1.507064">
        <ele>228.1</ele>
        <time>2014-01-31T16:30:37Z</time>
      </trkpt>
      <trkpt lat="43.446524" lon="1.507174">
        <ele>229.8</ele>
        <time>2014-01-31T16:30:49Z</time>
      </trkpt>
      <trkpt lat="43.446586" lon="1.507300">
        <ele>232.4</ele>
        <time>2014-01-31T16:31:32Z</time>
      </trkpt>
      <trkpt lat="43.446689" lon="1.507274">
        <ele>233.0</ele>
        <time>2014-01-31T16:31:44Z</time>
      </trkpt>
      <trkpt lat="43.446757" lon="1.507166">
        <ele>234.4</ele>
        <time>2014-01-31T16:31:54Z</time>
      </trkpt>
      <trkpt lat="43.446802" lon="1.507041">
        <ele>236.4</ele>
        <time>2014-01-31T16:32:05Z</time>
      </trkpt>
      <trkpt lat="43.446890" lon="1.506955">
        <ele>239.6</ele>
        <time>2014-01-31T16:32:18Z</time>
      </trkpt>
      <trkpt lat="43.447010" lon="1.506944">
        <ele>242.4</ele>
        <time>2014-01-31T16:32:30Z</time>
      </trkpt>
      <trkpt lat="43.447141" lon="1.506952">
        <ele>244.3</ele>
        <time>2014-01-31T16:32:41Z</time>
      </trkpt>
      <trkpt lat="43.447256" lon="1.506917">
        <ele>245.1</ele>
        <time>2014-01-31T16:32:50Z</time>
      </trkpt>
      <trkpt lat="43.447379" lon="1.506864">
        <ele>245.6</ele>
        <time>2014-01-31T16:32:58Z</time>
      </trkpt>
      <trkpt lat="43.447476" lon="1.506830">
        <ele>246.7</ele>
        <time>2014-01-31T16:33:06Z</time>
      </trkpt>
      <trkpt lat="43.447556" lon="1.506760">
        <ele>247.7</ele>
        <time>2014-01-31T16:33:15Z</time>
      </trkpt>
      <trkpt lat="43.447633" lon="1.506683">
        <ele>248.3</ele>
        <time>2014-01-31T16:33:24Z</time>
      </trkpt>
      <trkpt lat="43.447715" lon="1.506615">
        <ele>249.5</ele>
        <time>2014-01-31T16:33:35Z</time>
      </trkpt>
      <trkpt lat="43.447795" lon="1.506527">
        <ele>250.6</ele>
        <time>2014-01-31T16:33:47Z</time>
      </trkpt>
      <trkpt lat="43.447918" lon="1.506427">
        <ele>252.0</ele>
        <time>2014-01-31T16:33:59Z</time>
      </trkpt>
      <trkpt lat="43.448015" lon="1.506349">
        <ele>253.2</ele>
        <time>2014-01-31T16:34:09Z</time>
      </trkpt>
      <trkpt lat="43.448126" lon="1.506252">
        <ele>254.5</ele>
        <time>2014-01-31T16:34:19Z</time>
      </trkpt>
      <trkpt lat="43.448219" lon="1.506180">
        <ele>255.3</ele>
        <time>2014-01-31T16:34:28Z</time>
      </trkpt>
      <trkpt lat="43.448292" lon="1.506099">
        <ele>255.7</ele>
        <time>2014-01-31T16:34:37Z</time>
      </trkpt>
      <trkpt lat="43.448376" lon="1.506007">
        <ele>256.5</ele>
        <time>2014-01-31T16:34:47Z</time>
      </trkpt>
      <trkpt lat="43.448460" lon="1.505945">
        <ele>256.9</ele>
        <time>2014-01-31T16:34:56Z</time>
      </trkpt>
      <trkpt lat="43.448541" lon="1.505869">
        <ele>257.4</ele>
        <time>2014-01-31T16:35:05Z</time>
      </trkpt>
      <trkpt lat="43.448628" lon="1.505789">
        <ele>258.0</ele>
        <time>2014-01-31T16:35:16Z</time>
      </trkpt>
      <trkpt lat="43.448716" lon="1.505724">
        <ele>258.2</ele>
        <time>2014-01-31T16:35:25Z</time>
      </trkpt>
      <trkpt lat="43.448794" lon="1.505639">
        <ele>258.5</ele>
        <time>2014-01-31T16:35:34Z</time>
      </trkpt>
      <trkpt lat="43.448866" lon="1.505551">
        <ele>258.8</ele>
        <time>2014-01-31T16:35:42Z</time>
      </trkpt>
      <trkpt lat="43.448947" lon="1.505473">
        <ele>259.1</ele>
        <time>2014-01-31T16:35:50Z</time>
      </trkpt>
      <trkpt lat="43.449032" lon="1.505397">
        <ele>259.3</ele>
        <time>2014-01-31T16:35:58Z</time>
      </trkpt>
      <trkpt lat="43.449104" lon="1.505310">
        <ele>259.5</ele>
        <time>2014-01-31T16:36:06Z</time>
      </trkpt>
      <trkpt lat="43.449183" lon="1.505231">
        <ele>259.7</ele>
        <time>2014-01-31T16:36:13Z</time>
      </trkpt>
      <trkpt lat="43.449254" lon="1.505157">
        <ele>259.8</ele>
        <time>2014-01-31T16:36:20Z</time>
      </trkpt>
      <trkpt lat="43.449326" lon="1.505074">
        <ele>260.0</ele>
        <time>2014-01-31T16:36:27Z</time>
      </trkpt>
      <trkpt lat="43.449400" lon="1.504999">
        <ele>260.1</ele>
        <time>2014-01-31T16:36:35Z</time>
      </trkpt>
      <trkpt lat="43.449477" lon="1.504906">
        <ele>260.3</ele>
        <time>2014-01-31T16:36:43Z</time>
      </trkpt>
      <trkpt lat="43.449552" lon="1.504807">
        <ele>260.5</ele>
        <time>2014-01-31T16:36:51Z</time>
      </trkpt>
      <trkpt lat="43.449634" lon="1.504719">
        <ele>260.7</ele>
        <time>2014-01-31T16:36:59Z</time>
      </trkpt>
      <trkpt lat="43.449699" lon="1.504620">
        <ele>261.1</ele>
        <time>2014-01-31T16:37:07Z</time>
      </trkpt>
      <trkpt lat="43.449774" lon="1.504525">
        <ele>261.7</ele>
        <time>2014-01-31T16:37:15Z</time>
      </trkpt>
      <trkpt lat="43.449845" lon="1.504433">
        <ele>262.3</ele>
        <time>2014-01-31T16:37:23Z</time>
      </trkpt>
      <trkpt lat="43.449917" lon="1.504349">
        <ele>262.7</ele>
        <time>2014-01-31T16:37:31Z</time>
      </trkpt>
      <trkpt lat="43.449988" lon="1.504258">
        <ele>263.3</ele>
        <time>2014-01-31T16:37:39Z</time>
      </trkpt>
      <trkpt lat="43.450063" lon="1.504150">
        <ele>263.9</ele>
        <time>2014-01-31T16:37:48Z</time>
      </trkpt>
      <trkpt lat="43.450130" lon="1.504050">
        <ele>264.2</ele>
        <time>2014-01-31T16:37:56Z</time>
      </trkpt>
      <trkpt lat="43.450195" lon="1.503948">
        <ele>264.7</ele>
        <time>2014-01-31T16:38:04Z</time>
      </trkpt>
      <trkpt lat="43.450266" lon="1.503852">
        <ele>265.4</ele>
        <time>2014-01-31T16:38:12Z</time>
      </trkpt>
      <trkpt lat="43.450338" lon="1.503762">
        <ele>266.0</ele>
        <time>2014-01-31T16:38:20Z</time>
      </trkpt>
      <trkpt lat="43.450403" lon="1.503664">
        <ele>266.5</ele>
        <time>2014-01-31T16:38:28Z</time>
      </trkpt>
      <trkpt lat="43.450462" lon="1.503569">
        <ele>266.9</ele>
        <time>2014-01-31T16:38:36Z</time>
      </trkpt>
      <trkpt lat="43.450533" lon="1.503468">
        <ele>267.3</ele>
        <time>2014-01-31T16:38:44Z</time>
      </trkpt>
      <trkpt lat="43.450606" lon="1.503385">
        <ele>267.5</ele>
        <time>2014-01-31T16:38:52Z</time>
      </trkpt>
      <trkpt lat="43.450688" lon="1.503306">
        <ele>267.8</ele>
        <time>2014-01-31T16:39:00Z</time>
      </trkpt>
      <trkpt lat="43.450751" lon="1.503203">
        <ele>267.9</ele>
        <time>2014-01-31T16:39:07Z</time>
      </trkpt>
      <trkpt lat="43.450813" lon="1.503104">
        <ele>268.3</ele>
        <time>2014-01-31T16:39:15Z</time>
      </trkpt>
      <trkpt lat="43.450883" lon="1.503018">
        <ele>268.8</ele>
        <time>2014-01-31T16:39:23Z</time>
      </trkpt>
      <trkpt lat="43.450950" lon="1.502942">
        <ele>269.1</ele>
        <time>2014-01-31T16:39:31Z</time>
      </trkpt>
      <trkpt lat="43.451042" lon="1.502873">
        <ele>269.2</ele>
        <time>2014-01-31T16:39:39Z</time>
      </trkpt>
      <trkpt lat="43.451124" lon="1.502784">
        <ele>269.5</ele>
        <time>2014-01-31T16:39:48Z</time>
      </trkpt>
      <trkpt lat="43.451200" lon="1.502685">
        <ele>269.8</ele>
        <time>2014-01-31T16:39:56Z</time>
      </trkpt>
      <trkpt lat="43.451260" lon="1.502581">
        <ele>270.3</ele>
        <time>2014-01-31T16:40:06Z</time>
      </trkpt>
      <trkpt lat="43.451341" lon="1.502507">
        <ele>270.2</ele>
        <time>2014-01-31T16:44:32Z</time>
      </trkpt>
      <trkpt lat="43.451415" lon="1.502420">
        <ele>270.5</ele>
        <time>2014-01-31T16:44:40Z</time>
      </trkpt>
      <trkpt lat="43.451494" lon="1.502336">
        <ele>270.8</ele>
        <time>2014-01-31T16:44:48Z</time>
      </trkpt>
      <trkpt lat="43.451567" lon="1.502247">
        <ele>271.1</ele>
        <time>2014-01-31T16:44:56Z</time>
      </trkpt>
      <trkpt lat="43.451638" lon="1.502173">
        <ele>271.3</ele>
        <time>2014-01-31T16:45:04Z</time>
      </trkpt>
      <trkpt lat="43.451705" lon="1.502081">
        <ele>271.5</ele>
        <time>2014-01-31T16:45:12Z</time>
      </trkpt>
      <trkpt lat="43.451790" lon="1.501988">
        <ele>271.4</ele>
        <time>2014-01-31T16:45:21Z</time>
      </trkpt>
      <trkpt lat="43.451856" lon="1.501886">
        <ele>271.3</ele>
        <time>2014-01-31T16:45:30Z</time>
      </trkpt>
      <trkpt lat="43.451925" lon="1.501785">
        <ele>271.2</ele>
        <time>2014-01-31T16:45:38Z</time>
      </trkpt>
      <trkpt lat="43.452004" lon="1.501691">
        <ele>270.9</ele>
        <time>2014-01-31T16:45:46Z</time>
      </trkpt>
      <trkpt lat="43.452072" lon="1.501588">
        <ele>270.8</ele>
        <time>2014-01-31T16:45:54Z</time>
      </trkpt>
      <trkpt lat="43.452132" lon="1.501481">
        <ele>270.7</ele>
        <time>2014-01-31T16:46:02Z</time>
      </trkpt>
      <trkpt lat="43.452201" lon="1.501374">
        <ele>270.5</ele>
        <time>2014-01-31T16:46:11Z</time>
      </trkpt>
      <trkpt lat="43.452272" lon="1.501274">
        <ele>270.3</ele>
        <time>2014-01-31T16:46:19Z</time>
      </trkpt>
      <trkpt lat="43.452339" lon="1.501155">
        <ele>270.4</ele>
        <time>2014-01-31T16:46:27Z</time>
      </trkpt>
      <trkpt lat="43.452400" lon="1.501064">
        <ele>270.5</ele>
        <time>2014-01-31T16:46:35Z</time>
      </trkpt>
      <trkpt lat="43.452459" lon="1.500952">
        <ele>270.5</ele>
        <time>2014-01-31T16:46:43Z</time>
      </trkpt>
      <trkpt lat="43.452530" lon="1.500853">
        <ele>270.5</ele>
        <time>2014-01-31T16:46:52Z</time>
      </trkpt>
      <trkpt lat="43.452597" lon="1.500761">
        <ele>270.2</ele>
        <time>2014-01-31T16:47:00Z</time>
      </trkpt>
      <trkpt lat="43.452667" lon="1.500650">
        <ele>270.1</ele>
        <time>2014-01-31T16:47:08Z</time>
      </trkpt>
      <trkpt lat="43.452728" lon="1.500552">
        <ele>270.2</ele>
        <time>2014-01-31T16:47:15Z</time>
      </trkpt>
      <trkpt lat="43.452792" lon="1.500446">
        <ele>270.2</ele>
        <time>2014-01-31T16:47:23Z</time>
      </trkpt>
      <trkpt lat="43.452857" lon="1.500341">
        <ele>270.2</ele>
        <time>2014-01-31T16:47:31Z</time>
      </trkpt>
      <trkpt lat="43.452918" lon="1.500238">
        <ele>270.5</ele>
        <time>2014-01-31T16:47:39Z</time>
      </trkpt>
      <trkpt lat="43.452982" lon="1.500143">
        <ele>270.6</ele>
        <time>2014-01-31T16:47:46Z</time>
      </trkpt>
      <trkpt lat="43.453049" lon="1.500053">
        <ele>270.7</ele>
        <time>2014-01-31T16:47:53Z</time>
      </trkpt>
      <trkpt lat="43.453113" lon="1.499944">
        <ele>270.9</ele>
        <time>2014-01-31T16:48:01Z</time>
      </trkpt>
      <trkpt lat="43.453170" lon="1.499835">
        <ele>271.1</ele>
        <time>2014-01-31T16:48:08Z</time>
      </trkpt>
      <trkpt lat="43.453240" lon="1.499738">
        <ele>271.5</ele>
        <time>2014-01-31T16:48:15Z</time>
      </trkpt>
      <trkpt lat="43.453299" lon="1.499636">
        <ele>272.0</ele>
        <time>2014-01-31T16:48:22Z</time>
      </trkpt>
      <trkpt lat="43.453355" lon="1.499536">
        <ele>272.4</ele>
        <time>2014-01-31T16:48:29Z</time>
      </trkpt>
      <trkpt lat="43.453414" lon="1.499431">
        <ele>272.7</ele>
        <time>2014-01-31T16:48:36Z</time>
      </trkpt>
      <trkpt lat="43.453472" lon="1.499327">
        <ele>273.2</ele>
        <time>2014-01-31T16:48:43Z</time>
      </trkpt>
      <trkpt lat="43.453524" lon="1.499211">
        <ele>273.9</ele>
        <time>2014-01-31T16:48:50Z</time>
      </trkpt>
      <trkpt lat="43.453577" lon="1.499094">
        <ele>274.5</ele>
        <time>2014-01-31T16:48:57Z</time>
      </trkpt>
      <trkpt lat="43.453635" lon="1.498992">
        <ele>275.1</ele>
        <time>2014-01-31T16:49:04Z</time>
      </trkpt>
      <trkpt lat="43.453692" lon="1.498881">
        <ele>275.6</ele>
        <time>2014-01-31T16:49:12Z</time>
      </trkpt>
      <trkpt lat="43.453739" lon="1.498745">
        <ele>276.0</ele>
        <time>2014-01-31T16:49:21Z</time>
      </trkpt>
      <trkpt lat="43.453806" lon="1.498624">
        <ele>276.5</ele>
        <time>2014-01-31T16:49:30Z</time>
      </trkpt>
      <trkpt lat="43.453860" lon="1.498491">
        <ele>276.8</ele>
        <time>2014-01-31T16:49:39Z</time>
      </trkpt>
      <trkpt lat="43.453903" lon="1.498364">
        <ele>277.0</ele>
        <time>2014-01-31T16:49:47Z</time>
      </trkpt>
      <trkpt lat="43.453964" lon="1.498238">
        <ele>277.3</ele>
        <time>2014-01-31T16:49:55Z</time>
      </trkpt>
      <trkpt lat="43.454018" lon="1.498094">
        <ele>277.2</ele>
        <time>2014-01-31T16:50:04Z</time>
      </trkpt>
      <trkpt lat="43.454073" lon="1.497982">
        <ele>277.4</ele>
        <time>2014-01-31T16:50:12Z</time>
      </trkpt>
      <trkpt lat="43.454135" lon="1.497866">
        <ele>277.4</ele>
        <time>2014-01-31T16:50:20Z</time>
      </trkpt>
      <trkpt lat="43.454197" lon="1.497768">
        <ele>277.1</ele>
        <time>2014-01-31T16:50:28Z</time>
      </trkpt>
      <trkpt lat="43.454252" lon="1.497643">
        <ele>276.5</ele>
        <time>2014-01-31T16:50:37Z</time>
      </trkpt>
      <trkpt lat="43.454307" lon="1.497536">
        <ele>275.8</ele>
        <time>2014-01-31T16:50:45Z</time>
      </trkpt>
      <trkpt lat="43.454389" lon="1.497435">
        <ele>275.1</ele>
        <time>2014-01-31T16:50:53Z</time>
      </trkpt>
      <trkpt lat="43.454458" lon="1.497347">
        <ele>274.3</ele>
        <time>2014-01-31T16:51:00Z</time>
      </trkpt>
      <trkpt lat="43.454522" lon="1.497241">
        <ele>274.6</ele>
        <time>2014-01-31T16:51:08Z</time>
      </trkpt>
      <trkpt lat="43.454571" lon="1.497134">
        <ele>275.5</ele>
        <time>2014-01-31T16:51:15Z</time>
      </trkpt>
      <trkpt lat="43.454626" lon="1.497008">
        <ele>276.4</ele>
        <time>2014-01-31T16:51:23Z</time>
      </trkpt>
      <trkpt lat="43.454679" lon="1.496887">
        <ele>276.9</ele>
        <time>2014-01-31T16:51:30Z</time>
      </trkpt>
      <trkpt lat="43.454721" lon="1.496774">
        <ele>277.3</ele>
        <time>2014-01-31T16:51:38Z</time>
      </trkpt>
      <trkpt lat="43.454771" lon="1.496676">
        <ele>277.3</ele>
        <time>2014-01-31T16:52:50Z</time>
      </trkpt>
      <trkpt lat="43.454812" lon="1.496571">
        <ele>276.5</ele>
        <time>2014-01-31T16:55:39Z</time>
      </trkpt>
      <trkpt lat="43.454827" lon="1.496476">
        <ele>276.3</ele>
        <time>2014-01-31T16:56:43Z</time>
      </trkpt>
      <trkpt lat="43.454888" lon="1.496356">
        <ele>276.0</ele>
        <time>2014-01-31T16:57:24Z</time>
      </trkpt>
      <trkpt lat="43.454937" lon="1.496253">
        <ele>275.8</ele>
        <time>2014-01-31T16:57:33Z</time>
      </trkpt>
      <trkpt lat="43.454982" lon="1.496128">
        <ele>275.7</ele>
        <time>2014-01-31T16:57:42Z</time>
      </trkpt>
      <trkpt lat="43.455025" lon="1.496001">
        <ele>275.4</ele>
        <time>2014-01-31T16:57:51Z</time>
      </trkpt>
      <trkpt lat="43.455066" lon="1.495877">
        <ele>275.3</ele>
        <time>2014-01-31T16:57:59Z</time>
      </trkpt>
      <trkpt lat="43.455115" lon="1.495759">
        <ele>275.6</ele>
        <time>2014-01-31T16:58:07Z</time>
      </trkpt>
      <trkpt lat="43.455165" lon="1.495635">
        <ele>275.2</ele>
        <time>2014-01-31T16:58:15Z</time>
      </trkpt>
      <trkpt lat="43.455210" lon="1.495502">
        <ele>274.7</ele>
        <time>2014-01-31T16:58:23Z</time>
      </trkpt>
      <trkpt lat="43.455246" lon="1.495365">
        <ele>274.5</ele>
        <time>2014-01-31T16:58:32Z</time>
      </trkpt>
      <trkpt lat="43.455300" lon="1.495237">
        <ele>274.6</ele>
        <time>2014-01-31T16:58:40Z</time>
      </trkpt>
      <trkpt lat="43.455348" lon="1.495117">
        <ele>274.5</ele>
        <time>2014-01-31T16:58:47Z</time>
      </trkpt>
      <trkpt lat="43.455392" lon="1.494997">
        <ele>274.4</ele>
        <time>2014-01-31T16:58:54Z</time>
      </trkpt>
      <trkpt lat="43.455462" lon="1.494859">
        <ele>274.4</ele>
        <time>2014-01-31T16:59:02Z</time>
      </trkpt>
      <trkpt lat="43.455526" lon="1.494752">
        <ele>274.1</ele>
        <time>2014-01-31T16:59:10Z</time>
      </trkpt>
      <trkpt lat="43.455604" lon="1.494637">
        <ele>274.1</ele>
        <time>2014-01-31T16:59:18Z</time>
      </trkpt>
      <trkpt lat="43.455673" lon="1.494558">
        <ele>274.0</ele>
        <time>2014-01-31T16:59:24Z</time>
      </trkpt>
      <trkpt lat="43.455738" lon="1.494464">
        <ele>273.7</ele>
        <time>2014-01-31T16:59:31Z</time>
      </trkpt>
      <trkpt lat="43.455811" lon="1.494380">
        <ele>273.6</ele>
        <time>2014-01-31T16:59:40Z</time>
      </trkpt>
      <trkpt lat="43.455893" lon="1.494275">
        <ele>273.5</ele>
        <time>2014-01-31T16:59:49Z</time>
      </trkpt>
      <trkpt lat="43.455977" lon="1.494195">
        <ele>273.3</ele>
        <time>2014-01-31T16:59:57Z</time>
      </trkpt>
      <trkpt lat="43.456051" lon="1.494112">
        <ele>273.2</ele>
        <time>2014-01-31T17:00:04Z</time>
      </trkpt>
      <trkpt lat="43.456124" lon="1.494000">
        <ele>273.1</ele>
        <time>2014-01-31T17:00:12Z</time>
      </trkpt>
      <trkpt lat="43.456194" lon="1.493917">
        <ele>273.1</ele>
        <time>2014-01-31T17:00:19Z</time>
      </trkpt>
      <trkpt lat="43.456279" lon="1.493829">
        <ele>273.1</ele>
        <time>2014-01-31T17:00:27Z</time>
      </trkpt>
      <trkpt lat="43.456348" lon="1.493725">
        <ele>273.2</ele>
        <time>2014-01-31T17:00:34Z</time>
      </trkpt>
      <trkpt lat="43.456416" lon="1.493641">
        <ele>273.0</ele>
        <time>2014-01-31T17:00:41Z</time>
      </trkpt>
      <trkpt lat="43.456486" lon="1.493549">
        <ele>273.1</ele>
        <time>2014-01-31T17:00:48Z</time>
      </trkpt>
      <trkpt lat="43.456558" lon="1.493466">
        <ele>272.9</ele>
        <time>2014-01-31T17:00:55Z</time>
      </trkpt>
      <trkpt lat="43.456637" lon="1.493376">
        <ele>273.0</ele>
        <time>2014-01-31T17:01:03Z</time>
      </trkpt>
      <trkpt lat="43.456717" lon="1.493299">
        <ele>273.0</ele>
        <time>2014-01-31T17:01:10Z</time>
      </trkpt>
      <trkpt lat="43.456783" lon="1.493221">
        <ele>272.9</ele>
        <time>2014-01-31T17:01:17Z</time>
      </trkpt>
      <trkpt lat="43.456855" lon="1.493114">
        <ele>272.8</ele>
        <time>2014-01-31T17:01:24Z</time>
      </trkpt>
      <trkpt lat="43.456927" lon="1.493021">
        <ele>272.6</ele>
        <time>2014-01-31T17:01:31Z</time>
      </trkpt>
      <trkpt lat="43.457007" lon="1.492941">
        <ele>272.3</ele>
        <time>2014-01-31T17:01:39Z</time>
      </trkpt>
      <trkpt lat="43.457081" lon="1.492841">
        <ele>272.3</ele>
        <time>2014-01-31T17:01:47Z</time>
      </trkpt>
      <trkpt lat="43.457141" lon="1.492749">
        <ele>272.1</ele>
        <time>2014-01-31T17:01:53Z</time>
      </trkpt>
      <trkpt lat="43.457206" lon="1.492631">
        <ele>271.9</ele>
        <time>2014-01-31T17:02:01Z</time>
      </trkpt>
      <trkpt lat="43.457266" lon="1.492520">
        <ele>271.7</ele>
        <time>2014-01-31T17:02:08Z</time>
      </trkpt>
      <trkpt lat="43.457327" lon="1.492421">
        <ele>271.3</ele>
        <time>2014-01-31T17:02:15Z</time>
      </trkpt>
      <trkpt lat="43.457395" lon="1.492313">
        <ele>271.0</ele>
        <time>2014-01-31T17:02:23Z</time>
      </trkpt>
      <trkpt lat="43.457459" lon="1.492234">
        <ele>270.8</ele>
        <time>2014-01-31T17:02:30Z</time>
      </trkpt>
      <trkpt lat="43.457527" lon="1.492122">
        <ele>270.6</ele>
        <time>2014-01-31T17:02:38Z</time>
      </trkpt>
      <trkpt lat="43.457587" lon="1.492019">
        <ele>270.2</ele>
        <time>2014-01-31T17:02:45Z</time>
      </trkpt>
      <trkpt lat="43.457654" lon="1.491914">
        <ele>269.8</ele>
        <time>2014-01-31T17:02:53Z</time>
      </trkpt>
      <trkpt lat="43.457709" lon="1.491803">
        <ele>269.3</ele>
        <time>2014-01-31T17:03:00Z</time>
      </trkpt>
      <trkpt lat="43.457772" lon="1.491710">
        <ele>269.0</ele>
        <time>2014-01-31T17:03:07Z</time>
      </trkpt>
      <trkpt lat="43.457837" lon="1.491614">
        <ele>268.3</ele>
        <time>2014-01-31T17:03:14Z</time>
      </trkpt>
      <trkpt lat="43.457900" lon="1.491522">
        <ele>267.8</ele>
        <time>2014-01-31T17:03:22Z</time>
      </trkpt>
      <trkpt lat="43.457961" lon="1.491390">
        <ele>267.0</ele>
        <time>2014-01-31T17:03:31Z</time>
      </trkpt>
      <trkpt lat="43.458022" lon="1.491291">
        <ele>266.4</ele>
        <time>2014-01-31T17:03:39Z</time>
      </trkpt>
      <trkpt lat="43.458085" lon="1.491185">
        <ele>265.9</ele>
        <time>2014-01-31T17:03:47Z</time>
      </trkpt>
      <trkpt lat="43.458141" lon="1.491074">
        <ele>265.2</ele>
        <time>2014-01-31T17:03:55Z</time>
      </trkpt>
      <trkpt lat="43.458202" lon="1.490983">
        <ele>264.5</ele>
        <time>2014-01-31T17:04:03Z</time>
      </trkpt>
      <trkpt lat="43.458261" lon="1.490877">
        <ele>263.9</ele>
        <time>2014-01-31T17:04:11Z</time>
      </trkpt>
      <trkpt lat="43.458328" lon="1.490782">
        <ele>263.1</ele>
        <time>2014-01-31T17:04:19Z</time>
      </trkpt>
      <trkpt lat="43.458391" lon="1.490681">
        <ele>262.6</ele>
        <time>2014-01-31T17:04:26Z</time>
      </trkpt>
      <trkpt lat="43.458438" lon="1.490577">
        <ele>261.8</ele>
        <time>2014-01-31T17:04:34Z</time>
      </trkpt>
      <trkpt lat="43.458491" lon="1.490471">
        <ele>261.2</ele>
        <time>2014-01-31T17:04:42Z</time>
      </trkpt>
      <trkpt lat="43.458541" lon="1.490356">
        <ele>260.4</ele>
        <time>2014-01-31T17:04:50Z</time>
      </trkpt>
      <trkpt lat="43.458610" lon="1.490244">
        <ele>259.8</ele>
        <time>2014-01-31T17:04:58Z</time>
      </trkpt>
      <trkpt lat="43.458661" lon="1.490125">
        <ele>259.3</ele>
        <time>2014-01-31T17:05:06Z</time>
      </trkpt>
      <trkpt lat="43.458723" lon="1.490029">
        <ele>258.9</ele>
        <time>2014-01-31T17:05:14Z</time>
      </trkpt>
      <trkpt lat="43.458780" lon="1.489916">
        <ele>258.6</ele>
        <time>2014-01-31T17:05:23Z</time>
      </trkpt>
      <trkpt lat="43.458838" lon="1.489779">
        <ele>258.2</ele>
        <time>2014-01-31T17:05:32Z</time>
        <name>Le Moussie</name>
      </trkpt>
      <trkpt lat="43.458791" lon="1.489697">
        <ele>257.6</ele>
        <time>2014-01-31T17:05:47Z</time>
      </trkpt>
      <trkpt lat="43.458716" lon="1.489609">
        <ele>257.0</ele>
        <time>2014-01-31T17:05:57Z</time>
      </trkpt>
      <trkpt lat="43.458641" lon="1.489507">
        <ele>255.8</ele>
        <time>2014-01-31T17:06:08Z</time>
      </trkpt>
      <trkpt lat="43.458556" lon="1.489399">
        <ele>254.0</ele>
        <time>2014-01-31T17:06:20Z</time>
      </trkpt>
      <trkpt lat="43.458484" lon="1.489304">
        <ele>252.6</ele>
        <time>2014-01-31T17:06:29Z</time>
      </trkpt>
      <trkpt lat="43.458425" lon="1.489205">
        <ele>250.9</ele>
        <time>2014-01-31T17:06:38Z</time>
      </trkpt>
      <trkpt lat="43.458350" lon="1.489103">
        <ele>249.5</ele>
        <time>2014-01-31T17:06:47Z</time>
      </trkpt>
      <trkpt lat="43.458281" lon="1.489001">
        <ele>247.9</ele>
        <time>2014-01-31T17:06:56Z</time>
      </trkpt>
      <trkpt lat="43.458224" lon="1.488892">
        <ele>246.7</ele>
        <time>2014-01-31T17:07:04Z</time>
      </trkpt>
      <trkpt lat="43.458160" lon="1.488795">
        <ele>245.5</ele>
        <time>2014-01-31T17:07:12Z</time>
      </trkpt>
      <trkpt lat="43.458100" lon="1.488709">
        <ele>244.0</ele>
        <time>2014-01-31T17:07:21Z</time>
      </trkpt>
      <trkpt lat="43.458040" lon="1.488620">
        <ele>242.8</ele>
        <time>2014-01-31T17:07:31Z</time>
      </trkpt>
      <trkpt lat="43.457984" lon="1.488530">
        <ele>240.8</ele>
        <time>2014-01-31T17:07:42Z</time>
      </trkpt>
      <trkpt lat="43.457926" lon="1.488431">
        <ele>239.2</ele>
        <time>2014-01-31T17:07:52Z</time>
      </trkpt>
      <trkpt lat="43.457860" lon="1.488327">
        <ele>237.4</ele>
        <time>2014-01-31T17:08:02Z</time>
      </trkpt>
      <trkpt lat="43.457781" lon="1.488236">
        <ele>234.9</ele>
        <time>2014-01-31T17:08:13Z</time>
      </trkpt>
      <trkpt lat="43.457707" lon="1.488131">
        <ele>232.7</ele>
        <time>2014-01-31T17:08:24Z</time>
      </trkpt>
      <trkpt lat="43.457636" lon="1.488033">
        <ele>230.2</ele>
        <time>2014-01-31T17:08:34Z</time>
      </trkpt>
      <trkpt lat="43.457560" lon="1.487906">
        <ele>228.1</ele>
        <time>2014-01-31T17:08:44Z</time>
      </trkpt>
      <trkpt lat="43.457493" lon="1.487802">
        <ele>225.7</ele>
        <time>2014-01-31T17:08:54Z</time>
      </trkpt>
      <trkpt lat="43.457434" lon="1.487695">
        <ele>223.4</ele>
        <time>2014-01-31T17:09:02Z</time>
      </trkpt>
      <trkpt lat="43.457353" lon="1.487571">
        <ele>221.6</ele>
        <time>2014-01-31T17:09:11Z</time>
      </trkpt>
      <trkpt lat="43.457267" lon="1.487609">
        <ele>220.5</ele>
        <time>2014-01-31T17:09:21Z</time>
      </trkpt>
      <trkpt lat="43.457194" lon="1.487685">
        <ele>220.3</ele>
        <time>2014-01-31T17:09:30Z</time>
      </trkpt>
      <trkpt lat="43.457127" lon="1.487771">
        <ele>220.4</ele>
        <time>2014-01-31T17:09:38Z</time>
      </trkpt>
      <trkpt lat="43.457054" lon="1.487852">
        <ele>220.6</ele>
        <time>2014-01-31T17:09:48Z</time>
      </trkpt>
      <trkpt lat="43.456984" lon="1.487954">
        <ele>221.1</ele>
        <time>2014-01-31T17:09:58Z</time>
      </trkpt>
      <trkpt lat="43.456883" lon="1.488083">
        <ele>221.6</ele>
        <time>2014-01-31T17:10:09Z</time>
      </trkpt>
      <trkpt lat="43.456800" lon="1.488162">
        <ele>222.3</ele>
        <time>2014-01-31T17:10:18Z</time>
      </trkpt>
      <trkpt lat="43.456725" lon="1.488259">
        <ele>222.4</ele>
        <time>2014-01-31T17:10:26Z</time>
      </trkpt>
      <trkpt lat="43.456644" lon="1.488336">
        <ele>222.6</ele>
        <time>2014-01-31T17:10:34Z</time>
      </trkpt>
      <trkpt lat="43.456584" lon="1.488438">
        <ele>222.8</ele>
        <time>2014-01-31T17:10:43Z</time>
      </trkpt>
      <trkpt lat="43.456513" lon="1.488528">
        <ele>222.9</ele>
        <time>2014-01-31T17:10:52Z</time>
      </trkpt>
      <trkpt lat="43.456429" lon="1.488622">
        <ele>222.9</ele>
        <time>2014-01-31T17:11:01Z</time>
      </trkpt>
      <trkpt lat="43.456350" lon="1.488706">
        <ele>223.6</ele>
        <time>2014-01-31T17:11:10Z</time>
      </trkpt>
      <trkpt lat="43.456261" lon="1.488783">
        <ele>224.3</ele>
        <time>2014-01-31T17:11:20Z</time>
      </trkpt>
      <trkpt lat="43.456177" lon="1.488909">
        <ele>224.4</ele>
        <time>2014-01-31T17:11:30Z</time>
      </trkpt>
      <trkpt lat="43.456093" lon="1.488997">
        <ele>224.8</ele>
        <time>2014-01-31T17:11:39Z</time>
      </trkpt>
      <trkpt lat="43.456016" lon="1.489071">
        <ele>224.7</ele>
        <time>2014-01-31T17:11:47Z</time>
      </trkpt>
      <trkpt lat="43.455952" lon="1.489159">
        <ele>224.7</ele>
        <time>2014-01-31T17:11:55Z</time>
      </trkpt>
      <trkpt lat="43.455864" lon="1.489211">
        <ele>225.0</ele>
        <time>2014-01-31T17:12:04Z</time>
      </trkpt>
      <trkpt lat="43.455757" lon="1.489178">
        <ele>224.6</ele>
        <time>2014-01-31T17:12:16Z</time>
      </trkpt>
      <trkpt lat="43.455673" lon="1.489100">
        <ele>226.0</ele>
        <time>2014-01-31T17:12:35Z</time>
      </trkpt>
      <trkpt lat="43.455625" lon="1.489010">
        <ele>229.7</ele>
        <time>2014-01-31T17:12:58Z</time>
      </trkpt>
      <trkpt lat="43.455551" lon="1.488931">
        <ele>233.3</ele>
        <time>2014-01-31T17:13:21Z</time>
      </trkpt>
      <trkpt lat="43.455444" lon="1.488868">
        <ele>235.9</ele>
        <time>2014-01-31T17:13:39Z</time>
      </trkpt>
      <trkpt lat="43.455338" lon="1.488800">
        <ele>238.3</ele>
        <time>2014-01-31T17:13:56Z</time>
      </trkpt>
      <trkpt lat="43.455221" lon="1.488728">
        <ele>241.6</ele>
        <time>2014-01-31T17:14:14Z</time>
      </trkpt>
      <trkpt lat="43.455110" lon="1.488655">
        <ele>243.2</ele>
        <time>2014-01-31T17:14:28Z</time>
      </trkpt>
      <trkpt lat="43.455113" lon="1.488507">
        <ele>244.9</ele>
        <time>2014-01-31T17:14:39Z</time>
      </trkpt>
      <trkpt lat="43.455132" lon="1.488360">
        <ele>245.8</ele>
        <time>2014-01-31T17:14:50Z</time>
      </trkpt>
      <trkpt lat="43.455165" lon="1.488213">
        <ele>246.3</ele>
        <time>2014-01-31T17:15:01Z</time>
      </trkpt>
      <trkpt lat="43.455107" lon="1.488056">
        <ele>247.0</ele>
        <time>2014-01-31T17:15:15Z</time>
      </trkpt>
      <trkpt lat="43.455053" lon="1.487931">
        <ele>248.6</ele>
        <time>2014-01-31T17:15:28Z</time>
      </trkpt>
      <trkpt lat="43.454976" lon="1.487830">
        <ele>249.8</ele>
        <time>2014-01-31T17:15:43Z</time>
      </trkpt>
      <trkpt lat="43.454880" lon="1.487736">
        <ele>251.7</ele>
        <time>2014-01-31T17:15:59Z</time>
      </trkpt>
      <trkpt lat="43.454781" lon="1.487641">
        <ele>253.8</ele>
        <time>2014-01-31T17:16:14Z</time>
      </trkpt>
      <trkpt lat="43.454686" lon="1.487575">
        <ele>255.8</ele>
        <time>2014-01-31T17:16:30Z</time>
      </trkpt>
      <trkpt lat="43.454581" lon="1.487493">
        <ele>258.5</ele>
        <time>2014-01-31T17:16:47Z</time>
      </trkpt>
      <trkpt lat="43.454481" lon="1.487414">
        <ele>261.2</ele>
        <time>2014-01-31T17:17:03Z</time>
      </trkpt>
      <trkpt lat="43.454386" lon="1.487325">
        <ele>264.1</ele>
        <time>2014-01-31T17:17:20Z</time>
      </trkpt>
      <trkpt lat="43.454295" lon="1.487219">
        <ele>266.3</ele>
        <time>2014-01-31T17:17:36Z</time>
      </trkpt>
      <trkpt lat="43.454190" lon="1.487142">
        <ele>269.2</ele>
        <time>2014-01-31T17:17:53Z</time>
      </trkpt>
      <trkpt lat="43.454101" lon="1.487054">
        <ele>271.3</ele>
        <time>2014-01-31T17:18:07Z</time>
      </trkpt>
      <trkpt lat="43.454003" lon="1.486951">
        <ele>272.8</ele>
        <time>2014-01-31T17:18:20Z</time>
      </trkpt>
      <trkpt lat="43.453922" lon="1.486862">
        <ele>273.7</ele>
        <time>2014-01-31T17:18:32Z</time>
      </trkpt>
      <trkpt lat="43.453829" lon="1.486790">
        <ele>274.4</ele>
        <time>2014-01-31T17:18:44Z</time>
      </trkpt>
      <trkpt lat="43.453730" lon="1.486710">
        <ele>275.6</ele>
        <time>2014-01-31T17:18:59Z</time>
      </trkpt>
      <trkpt lat="43.453634" lon="1.486628">
        <ele>276.0</ele>
        <time>2014-01-31T17:19:12Z</time>
      </trkpt>
      <trkpt lat="43.453547" lon="1.486529">
        <ele>276.2</ele>
        <time>2014-01-31T17:19:23Z</time>
      </trkpt>
      <trkpt lat="43.453437" lon="1.486433">
        <ele>276.9</ele>
        <time>2014-01-31T17:19:35Z</time>
      </trkpt>
      <trkpt lat="43.453331" lon="1.486343">
        <ele>277.4</ele>
        <time>2014-01-31T17:19:48Z</time>
      </trkpt>
      <trkpt lat="43.453211" lon="1.486256">
        <ele>278.0</ele>
        <time>2014-01-31T17:20:05Z</time>
      </trkpt>
      <trkpt lat="43.453096" lon="1.486170">
        <ele>277.7</ele>
        <time>2014-01-31T17:20:20Z</time>
      </trkpt>
      <trkpt lat="43.452972" lon="1.486058">
        <ele>276.2</ele>
        <time>2014-01-31T17:20:34Z</time>
      </trkpt>
      <trkpt lat="43.453005" lon="1.485916">
        <ele>275.5</ele>
        <time>2014-01-31T17:20:44Z</time>
      </trkpt>
      <trkpt lat="43.453055" lon="1.485796">
        <ele>275.3</ele>
        <time>2014-01-31T17:20:54Z</time>
      </trkpt>
      <trkpt lat="43.453110" lon="1.485620">
        <ele>275.7</ele>
        <time>2014-01-31T17:21:06Z</time>
      </trkpt>
      <trkpt lat="43.453191" lon="1.485532">
        <ele>276.6</ele>
        <time>2014-01-31T17:21:17Z</time>
      </trkpt>
    </trkseg>
  </trk>
</gpx>

